createdAt,value
2022-07-25T00:00:33.895Z,7.23
2022-07-25T00:03:02.700Z,7.00
2022-07-25T00:05:37.366Z,7.20
2022-07-25T00:08:07.067Z,7.47
2022-07-25T00:10:35.492Z,6.93
2022-07-25T00:13:05.266Z,7.07
2022-07-25T00:15:33.734Z,6.53
2022-07-25T00:18:02.165Z,7.00
2022-07-25T00:20:30.556Z,7.00
2022-07-25T00:22:58.998Z,7.47
2022-07-25T00:25:27.533Z,7.27
2022-07-25T00:27:55.908Z,7.17
2022-07-25T00:30:25.647Z,6.97
2022-07-25T00:32:54.695Z,8.10
2022-07-25T00:35:23.043Z,7.17
2022-07-25T00:37:51.555Z,7.37
2022-07-25T00:40:20.087Z,7.00
2022-07-25T00:42:48.596Z,7.10
2022-07-25T00:45:18.362Z,7.23
2022-07-25T00:47:48.157Z,6.83
2022-07-25T00:50:16.509Z,7.03
2022-07-25T00:52:44.897Z,6.70
2022-07-25T00:55:14.153Z,6.73
2022-07-25T00:57:42.576Z,7.10
2022-07-25T01:00:14.343Z,7.23
2022-07-25T01:02:43.173Z,6.80
2022-07-25T01:05:13.345Z,6.77
2022-07-25T01:07:42.050Z,7.00
2022-07-25T01:10:11.294Z,6.50
2022-07-25T01:12:50.706Z,6.13
2022-07-25T01:15:20.097Z,6.47
2022-07-25T01:17:48.724Z,6.20
2022-07-25T01:20:19.600Z,6.73
2022-07-25T01:22:48.464Z,7.23
2022-07-25T01:25:17.537Z,7.60
2022-07-25T01:27:48.832Z,6.70
2022-07-25T01:30:22.203Z,6.07
2022-07-25T01:32:50.556Z,7.20
2022-07-25T01:35:20.296Z,7.40
2022-07-25T01:37:48.821Z,6.80
2022-07-25T01:40:17.342Z,6.73
2022-07-25T01:42:46.208Z,6.80
2022-07-25T01:45:14.900Z,7.07
2022-07-25T01:47:43.412Z,7.40
2022-07-25T01:50:12.067Z,6.87
2022-07-25T01:52:41.835Z,6.80
2022-07-25T01:55:11.160Z,6.83
2022-07-25T01:57:41.042Z,6.37
2022-07-25T02:00:18.198Z,7.07
2022-07-25T02:02:46.608Z,6.73
2022-07-25T02:05:16.159Z,6.33
2022-07-25T02:07:45.900Z,5.97
2022-07-25T02:10:14.225Z,6.23
2022-07-25T02:12:42.640Z,6.33
2022-07-25T02:15:11.740Z,6.63
2022-07-25T02:17:40.123Z,5.73
2022-07-25T02:20:10.207Z,5.63
2022-07-25T02:22:38.562Z,6.23
2022-07-25T02:25:10.431Z,5.77
2022-07-25T02:27:38.955Z,6.13
2022-07-25T02:30:08.494Z,5.27
2022-07-25T02:32:36.833Z,5.50
2022-07-25T02:35:12.906Z,5.50
2022-07-25T02:37:42.225Z,5.67
2022-07-25T02:40:13.082Z,5.80
2022-07-25T02:42:41.667Z,5.30
2022-07-25T02:45:10.843Z,5.60
2022-07-25T02:48:11.644Z,5.47
2022-07-25T02:50:40.266Z,5.47
2022-07-25T02:53:08.674Z,5.60
2022-07-25T02:55:38.442Z,6.00
2022-07-25T02:58:06.789Z,5.60
2022-07-25T03:00:35.190Z,5.20
2022-07-25T03:03:03.503Z,5.10
2022-07-25T03:05:32.531Z,5.03
2022-07-25T03:08:00.671Z,5.83
2022-07-25T03:10:29.073Z,5.13
2022-07-25T03:12:58.616Z,5.20
2022-07-25T03:15:26.803Z,5.30
2022-07-25T03:17:54.982Z,4.87
2022-07-25T03:20:23.160Z,4.90
2022-07-25T03:22:51.286Z,5.40
2022-07-25T03:25:21.782Z,4.60
2022-07-25T03:27:50.757Z,5.33
2022-07-25T03:30:20.668Z,5.07
2022-07-25T03:32:48.866Z,5.50
2022-07-25T03:35:17.151Z,5.43
2022-07-25T03:37:45.643Z,4.90
2022-07-25T03:40:14.543Z,5.53
2022-07-25T03:42:44.795Z,5.00
2022-07-25T03:45:12.958Z,4.67
2022-07-25T03:47:42.531Z,5.20
2022-07-25T03:50:11.477Z,5.10
2022-07-25T03:52:39.723Z,4.73
2022-07-25T03:55:09.268Z,4.90
2022-07-25T03:57:37.704Z,4.47
2022-07-25T04:00:07.881Z,4.43
2022-07-25T04:02:37.532Z,4.60
2022-07-25T04:05:08.354Z,4.77
2022-07-25T04:07:36.721Z,4.60
2022-07-25T04:10:06.899Z,4.70
2022-07-25T04:12:34.977Z,4.10
2022-07-25T04:15:03.058Z,4.77
2022-07-25T04:17:31.407Z,4.40
2022-07-25T04:19:59.871Z,4.40
2022-07-25T04:22:29.370Z,4.40
2022-07-25T04:24:57.625Z,4.80
2022-07-25T04:27:25.728Z,4.40
2022-07-25T04:29:53.774Z,4.37
2022-07-25T04:32:23.633Z,4.30
2022-07-25T04:34:52.548Z,4.60
2022-07-25T04:37:20.625Z,4.57
2022-07-25T04:39:50.061Z,4.20
2022-07-25T04:42:18.126Z,4.63
2022-07-25T04:44:46.222Z,4.37
2022-07-25T04:47:14.286Z,3.87
2022-07-25T04:49:42.403Z,4.23
2022-07-25T04:52:10.562Z,4.23
2022-07-25T04:54:38.660Z,4.37
2022-07-25T04:57:08.079Z,4.23
2022-07-25T04:59:36.211Z,4.60
2022-07-25T05:02:04.425Z,3.90
2022-07-25T05:04:32.626Z,4.17
2022-07-25T05:07:03.261Z,4.27
2022-07-25T05:09:31.400Z,4.50
2022-07-25T05:11:59.494Z,4.80
2022-07-25T05:14:29.075Z,4.33
2022-07-25T05:16:57.185Z,4.27
2022-07-25T05:19:25.374Z,4.30
2022-07-25T05:21:53.773Z,4.13
2022-07-25T05:24:22.986Z,4.30
2022-07-25T05:26:51.291Z,4.40
2022-07-25T05:29:19.527Z,4.30
2022-07-25T05:31:49.022Z,4.27
2022-07-25T05:34:17.151Z,4.30
2022-07-25T05:36:47.286Z,4.00
2022-07-25T05:39:15.652Z,4.47
2022-07-25T05:41:44.334Z,4.27
2022-07-25T05:44:14.697Z,4.20
2022-07-25T05:46:43.027Z,4.10
2022-07-25T05:49:12.551Z,4.27
2022-07-25T05:51:40.661Z,4.00
2022-07-25T05:54:09.636Z,4.40
2022-07-25T05:56:37.964Z,4.00
2022-07-25T05:59:06.549Z,4.10
2022-07-25T06:01:34.735Z,4.00
2022-07-25T06:04:03.901Z,4.17
2022-07-25T06:06:34.221Z,4.17
2022-07-25T06:09:02.730Z,4.00
2022-07-25T06:11:36.343Z,4.50
2022-07-25T06:14:19.318Z,4.37
2022-07-25T06:16:48.335Z,4.63
2022-07-25T06:19:16.498Z,3.97
2022-07-25T06:21:45.979Z,3.90
2022-07-25T06:24:14.040Z,4.10
2022-07-25T06:26:42.758Z,4.20
2022-07-25T06:29:10.897Z,4.30
2022-07-25T06:31:39.098Z,4.40
2022-07-25T06:34:07.713Z,4.43
2022-07-25T06:36:35.990Z,4.00
2022-07-25T06:39:05.476Z,4.17
2022-07-25T06:41:33.598Z,4.43
2022-07-25T06:44:01.702Z,4.60
2022-07-25T06:46:31.479Z,4.20
2022-07-25T06:48:59.955Z,4.20
2022-07-25T06:51:28.322Z,4.37
2022-07-25T06:53:56.712Z,3.77
2022-07-25T06:56:28.009Z,3.87
2022-07-25T06:58:56.093Z,4.20
2022-07-25T07:01:24.239Z,4.50
2022-07-25T07:03:52.507Z,4.60
2022-07-25T07:06:20.887Z,4.40
2022-07-25T07:08:49.051Z,4.27
2022-07-25T07:11:17.227Z,4.50
2022-07-25T07:13:46.766Z,3.93
2022-07-25T07:16:15.028Z,4.80
2022-07-25T07:18:48.701Z,4.50
2022-07-25T07:21:21.350Z,4.47
2022-07-25T07:23:53.374Z,4.47
2022-07-25T07:26:22.517Z,4.77
2022-07-25T07:28:54.416Z,4.87
2022-07-25T07:31:22.656Z,4.77
2022-07-25T07:33:50.793Z,5.10
2022-07-25T07:36:18.874Z,4.50
2022-07-25T07:38:48.320Z,5.10
2022-07-25T07:41:16.705Z,4.60
2022-07-25T07:43:44.755Z,4.73
2022-07-25T07:46:14.262Z,5.17
2022-07-25T07:48:42.393Z,4.87
2022-07-25T07:51:10.486Z,5.00
2022-07-25T07:53:55.940Z,5.00
2022-07-25T07:56:24.252Z,4.77
2022-07-25T07:58:52.379Z,4.80
2022-07-25T08:01:21.918Z,4.80
2022-07-25T08:03:50.041Z,5.00
2022-07-25T08:06:18.397Z,5.27
2022-07-25T08:08:46.514Z,5.23
2022-07-25T08:11:16.781Z,5.30
2022-07-25T08:13:45.835Z,5.17
2022-07-25T08:16:14.352Z,5.10
2022-07-25T08:18:43.888Z,5.23
2022-07-25T08:21:12.306Z,5.23
2022-07-25T08:23:41.101Z,5.13
2022-07-25T08:26:09.509Z,5.10
2022-07-25T08:28:37.657Z,5.40
2022-07-25T08:31:05.900Z,5.23
2022-07-25T08:33:34.364Z,5.30
2022-07-25T08:36:04.042Z,4.80
2022-07-25T08:38:32.184Z,5.30
2022-07-25T08:41:02.830Z,5.30
2022-07-25T08:43:33.002Z,5.00
2022-07-25T08:46:02.994Z,5.17
2022-07-25T08:48:31.256Z,4.80
2022-07-25T08:51:00.491Z,5.07
2022-07-25T08:53:33.160Z,5.00
2022-07-25T08:56:05.318Z,5.53
2022-07-25T08:58:38.082Z,5.17
2022-07-25T09:01:07.092Z,4.93
2022-07-25T09:03:36.310Z,5.53
2022-07-25T09:06:15.836Z,5.70
2022-07-25T09:08:54.472Z,5.00
2022-07-25T09:11:31.162Z,5.37
2022-07-25T09:14:00.818Z,5.67
2022-07-25T09:16:32.610Z,5.40
2022-07-25T09:19:10.631Z,5.37
2022-07-25T09:21:39.823Z,5.30
2022-07-25T09:24:18.469Z,5.47
2022-07-25T09:26:49.054Z,5.40
2022-07-25T09:29:22.456Z,5.60
2022-07-25T09:31:51.179Z,5.27
2022-07-25T09:34:34.978Z,5.67
2022-07-25T09:37:04.321Z,5.67
2022-07-25T09:39:46.688Z,5.50
2022-07-25T09:42:21.959Z,5.30
2022-07-25T09:45:12.411Z,5.53
2022-07-25T09:47:52.114Z,5.40
2022-07-25T09:50:20.907Z,5.40
2022-07-25T09:52:49.002Z,5.50
2022-07-25T09:55:19.274Z,5.57
2022-07-25T09:57:48.999Z,5.60
2022-07-25T10:00:23.244Z,5.47
2022-07-25T10:02:59.424Z,5.87
2022-07-25T10:05:42.974Z,5.23
2022-07-25T10:08:12.657Z,5.50
2022-07-25T10:10:43.213Z,5.33
2022-07-25T10:13:15.182Z,5.80
2022-07-25T10:15:48.758Z,5.30
2022-07-25T10:18:19.914Z,5.57
2022-07-25T10:20:49.685Z,5.80
2022-07-25T10:23:25.698Z,5.63
2022-07-25T10:26:09.311Z,5.53
2022-07-25T10:28:43.288Z,5.80
2022-07-25T10:31:22.966Z,5.63
2022-07-25T10:33:54.294Z,5.03
2022-07-25T10:36:23.727Z,4.93
2022-07-25T10:38:58.468Z,5.23
2022-07-25T10:41:29.851Z,5.43
2022-07-25T10:44:02.876Z,5.23
2022-07-25T10:46:32.561Z,5.17
2022-07-25T10:49:06.030Z,5.17
2022-07-25T10:51:41.323Z,5.57
2022-07-25T10:54:17.181Z,5.20
2022-07-25T10:56:58.119Z,5.40
2022-07-25T10:59:32.189Z,5.00
2022-07-25T11:02:01.045Z,5.00
2022-07-25T11:04:29.334Z,4.90
2022-07-25T11:06:57.654Z,4.60
2022-07-25T11:09:28.275Z,5.07
2022-07-25T11:11:59.463Z,5.23
2022-07-25T11:14:32.824Z,4.80
2022-07-25T11:17:12.998Z,5.10
2022-07-25T11:19:41.671Z,5.10
2022-07-25T11:22:09.985Z,4.90
2022-07-25T11:24:40.398Z,4.97
2022-07-25T11:27:12.337Z,4.80
2022-07-25T11:29:41.967Z,4.50
2022-07-25T11:32:12.006Z,4.97
2022-07-25T11:34:43.508Z,4.60
2022-07-25T11:37:13.619Z,4.57
2022-07-25T11:39:44.123Z,4.50
2022-07-25T11:42:16.656Z,5.27
2022-07-25T11:44:48.065Z,4.60
2022-07-25T11:47:28.224Z,4.60
2022-07-25T11:49:57.747Z,4.70
2022-07-25T11:52:27.818Z,5.07
2022-07-25T11:54:57.222Z,4.53
2022-07-25T11:57:28.415Z,5.47
2022-07-25T11:59:57.727Z,5.17
2022-07-25T12:02:27.628Z,5.10
2022-07-25T12:04:57.975Z,4.60
2022-07-25T12:07:37.581Z,4.80
2022-07-25T12:10:06.767Z,4.67
2022-07-25T12:12:45.163Z,4.80
2022-07-25T12:15:14.723Z,4.97
2022-07-25T12:17:43.886Z,4.83
2022-07-25T12:20:17.121Z,4.87
2022-07-25T12:22:45.343Z,5.00
2022-07-25T12:25:14.038Z,4.90
2022-07-25T12:27:44.167Z,5.30
2022-07-25T12:30:13.743Z,5.60
2022-07-25T12:32:42.671Z,5.10
2022-07-25T12:35:12.421Z,5.40
2022-07-25T12:37:41.589Z,5.47
2022-07-25T12:40:10.962Z,5.53
2022-07-25T12:42:39.269Z,6.00
2022-07-25T12:45:09.953Z,5.30
2022-07-25T12:47:38.154Z,5.73
2022-07-25T12:50:07.402Z,6.00
2022-07-25T12:52:35.613Z,6.00
2022-07-25T12:55:03.828Z,5.60
2022-07-25T12:57:32.167Z,5.17
2022-07-25T13:00:00.296Z,5.10
2022-07-25T13:02:29.895Z,5.40
2022-07-25T13:04:58.126Z,5.90
2022-07-25T13:07:26.463Z,5.67
2022-07-25T13:09:54.670Z,6.00
2022-07-25T13:12:24.151Z,5.87
2022-07-25T13:14:52.329Z,5.57
2022-07-25T13:17:23.622Z,5.50
2022-07-25T13:19:57.813Z,5.90
2022-07-25T13:22:26.289Z,5.50
2022-07-25T13:24:55.275Z,5.87
2022-07-25T13:27:24.063Z,5.90
2022-07-25T13:29:54.861Z,5.50
2022-07-25T13:32:26.469Z,6.03
2022-07-25T13:34:56.260Z,5.80
2022-07-25T13:37:24.492Z,6.63
2022-07-25T13:39:52.690Z,7.27
2022-07-25T13:42:20.813Z,8.60
2022-07-25T13:44:49.135Z,8.80
2022-07-25T13:47:17.363Z,8.37
2022-07-25T13:49:45.494Z,11.80
2022-07-25T13:52:15.102Z,12.47
2022-07-25T13:54:43.361Z,13.30
2022-07-25T13:57:11.619Z,12.63
2022-07-25T13:59:39.933Z,13.90
2022-07-25T14:02:08.162Z,12.60
2022-07-25T14:04:36.294Z,11.83
2022-07-25T14:07:04.582Z,11.17
2022-07-25T14:09:34.078Z,10.67
2022-07-25T14:12:02.352Z,10.67
2022-07-25T14:14:30.529Z,10.43
2022-07-25T14:16:59.292Z,9.73
2022-07-25T14:19:27.491Z,9.70
2022-07-25T14:21:55.647Z,10.00
2022-07-25T14:24:23.904Z,9.53
2022-07-25T14:26:54.065Z,9.40
2022-07-25T14:29:25.944Z,9.53
2022-07-25T14:31:57.003Z,9.20
2022-07-25T14:34:25.320Z,8.67
2022-07-25T14:36:53.503Z,7.87
2022-07-25T14:39:21.730Z,7.90
2022-07-25T14:41:50.176Z,7.17
2022-07-25T14:44:20.182Z,7.03
2022-07-25T14:46:50.087Z,6.20
2022-07-25T14:49:20.182Z,5.83
2022-07-25T14:51:49.518Z,5.30
2022-07-25T14:54:18.500Z,5.80
2022-07-25T14:56:46.824Z,5.37
2022-07-25T14:59:15.005Z,5.47
2022-07-25T15:01:44.570Z,5.17
2022-07-25T15:04:12.824Z,5.30
2022-07-25T15:06:41.139Z,6.37
2022-07-25T15:09:09.763Z,4.80
2022-07-25T15:11:38.460Z,4.97
2022-07-25T15:14:06.621Z,5.23
2022-07-25T15:16:35.033Z,5.67
2022-07-25T15:19:16.583Z,5.20
2022-07-25T15:21:45.769Z,6.50
2022-07-25T15:24:14.296Z,5.67
2022-07-25T15:26:42.410Z,5.37
2022-07-25T15:29:11.987Z,4.73
2022-07-25T15:31:40.425Z,5.40
2022-07-25T15:34:10.022Z,6.40
2022-07-25T15:36:38.177Z,5.20
2022-07-25T15:39:06.765Z,4.80
2022-07-25T15:41:35.365Z,4.60
2022-07-25T15:44:03.547Z,5.40
2022-07-25T15:46:32.779Z,5.10
2022-07-25T15:49:02.599Z,5.17
2022-07-25T15:51:32.251Z,5.30
2022-07-25T15:54:00.385Z,4.87
2022-07-25T15:56:29.191Z,5.20
2022-07-25T15:58:57.426Z,5.43
2022-07-25T16:01:26.191Z,5.63
2022-07-25T16:03:55.321Z,5.90
2022-07-25T16:06:23.453Z,4.93
2022-07-25T16:08:53.118Z,5.93
2022-07-25T16:11:27.000Z,5.27
2022-07-25T16:13:55.249Z,6.97
2022-07-25T16:16:23.577Z,5.47
2022-07-25T16:18:52.057Z,4.97
2022-07-25T16:21:20.241Z,4.83
2022-07-25T16:23:48.336Z,5.03
2022-07-25T16:26:17.879Z,4.27
2022-07-25T16:28:46.009Z,4.50
2022-07-25T16:31:14.177Z,4.77
2022-07-25T16:33:42.314Z,4.40
2022-07-25T16:36:12.326Z,4.10
2022-07-25T16:38:40.634Z,3.90
2022-07-25T16:41:09.009Z,3.70
2022-07-25T16:43:38.585Z,3.60
2022-07-25T16:46:08.643Z,3.83
2022-07-25T16:48:38.063Z,3.93
2022-07-25T16:51:06.800Z,3.90
2022-07-25T16:53:36.638Z,3.50
2022-07-25T16:56:06.607Z,3.30
2022-07-25T16:58:35.833Z,3.30
2022-07-25T17:01:06.890Z,3.33
2022-07-25T17:03:35.330Z,3.20
2022-07-25T17:06:05.434Z,3.03
2022-07-25T17:08:34.806Z,3.30
2022-07-25T17:11:04.590Z,3.20
2022-07-25T17:13:33.026Z,3.00
2022-07-25T17:16:01.797Z,2.97
2022-07-25T17:18:31.625Z,3.03
2022-07-25T17:21:00.103Z,3.13
2022-07-25T17:23:28.673Z,3.37
2022-07-25T17:25:58.107Z,3.40
2022-07-25T17:28:27.030Z,3.07
2022-07-25T17:30:55.597Z,2.87
2022-07-25T17:33:23.967Z,3.30
2022-07-25T17:35:53.673Z,3.20
2022-07-25T17:38:25.977Z,3.17
2022-07-25T17:40:56.150Z,3.30
2022-07-25T17:43:24.379Z,3.37
2022-07-25T17:45:52.785Z,3.90
2022-07-25T17:48:21.630Z,3.00
2022-07-25T17:50:49.931Z,3.60
2022-07-25T17:53:19.471Z,3.63
2022-07-25T17:55:47.750Z,3.40
2022-07-25T17:58:16.191Z,3.20
2022-07-25T18:00:44.384Z,3.00
2022-07-25T18:03:12.545Z,2.77
2022-07-25T18:05:40.835Z,3.50
2022-07-25T18:08:10.690Z,2.60
2022-07-25T18:10:40.850Z,3.00
2022-07-25T18:13:08.942Z,3.10
2022-07-25T18:15:37.330Z,3.13
2022-07-25T18:18:07.410Z,3.00
2022-07-25T18:20:37.045Z,3.07
2022-07-25T18:23:05.240Z,3.47
2022-07-25T18:25:33.350Z,3.27
2022-07-25T18:28:03.343Z,3.10
2022-07-25T18:30:31.572Z,3.30
2022-07-25T18:32:59.700Z,2.90
2022-07-25T18:35:27.814Z,3.10
2022-07-25T18:37:56.058Z,2.70
2022-07-25T18:40:24.188Z,3.33
2022-07-25T18:42:52.314Z,3.50
2022-07-25T18:45:22.166Z,3.10
2022-07-25T18:47:52.461Z,3.40
2022-07-25T18:50:20.778Z,3.30
2022-07-25T18:52:48.932Z,3.30
2022-07-25T18:55:17.035Z,3.27
2022-07-25T18:57:45.247Z,3.37
2022-07-25T19:00:13.705Z,3.50
2022-07-25T19:02:43.198Z,3.10
2022-07-25T19:05:11.633Z,3.17
2022-07-25T19:07:40.907Z,3.43
2022-07-25T19:10:10.459Z,3.30
2022-07-25T19:12:38.983Z,2.90
2022-07-25T19:15:08.203Z,2.87
2022-07-25T19:17:37.628Z,3.00
2022-07-25T19:20:08.852Z,3.00
2022-07-25T19:22:37.002Z,3.43
2022-07-25T19:25:08.301Z,2.80
2022-07-25T19:27:36.634Z,2.70
2022-07-25T19:30:06.987Z,2.97
2022-07-25T19:32:35.971Z,2.73
2022-07-25T19:35:04.649Z,3.30
2022-07-25T19:37:34.391Z,2.70
2022-07-25T19:40:02.750Z,3.23
2022-07-25T19:42:30.868Z,3.10
2022-07-25T19:44:58.983Z,3.50
2022-07-25T19:47:27.657Z,3.20
2022-07-25T19:49:55.722Z,2.93
2022-07-25T19:52:23.876Z,2.87
2022-07-25T19:54:54.532Z,3.00
2022-07-25T19:57:22.608Z,3.10
2022-07-25T19:59:50.667Z,3.50
2022-07-25T20:02:18.806Z,3.60
2022-07-25T20:04:46.942Z,2.80
2022-07-25T20:07:15.017Z,3.07
2022-07-25T20:09:43.147Z,2.77
2022-07-25T20:12:12.570Z,3.30
2022-07-25T20:14:40.635Z,3.13
2022-07-25T20:17:09.000Z,2.87
2022-07-25T20:19:38.236Z,2.93
2022-07-25T20:22:06.885Z,2.70
2022-07-25T20:24:35.259Z,3.47
2022-07-25T20:27:03.374Z,3.50
2022-07-25T20:29:32.793Z,3.13
2022-07-25T20:32:02.189Z,3.67
2022-07-25T20:34:30.363Z,3.47
2022-07-25T20:36:58.503Z,3.60
2022-07-25T20:39:28.797Z,3.40
2022-07-25T20:41:56.985Z,2.80
2022-07-25T20:44:25.180Z,3.17
2022-07-25T20:46:54.641Z,3.30
2022-07-25T20:49:23.306Z,2.60
2022-07-25T20:51:54.554Z,3.37
2022-07-25T20:54:23.069Z,3.20
2022-07-25T20:56:51.222Z,3.37
2022-07-25T20:59:19.305Z,3.37
2022-07-25T21:01:47.516Z,3.37
2022-07-25T21:04:18.807Z,3.40
2022-07-25T21:06:47.138Z,3.60
2022-07-25T21:09:16.571Z,4.27
2022-07-25T21:11:44.741Z,3.07
2022-07-25T21:14:13.284Z,4.10
2022-07-25T21:16:41.428Z,3.50
2022-07-25T21:19:09.937Z,3.67
2022-07-25T21:21:39.947Z,3.40
2022-07-25T21:24:09.317Z,3.50
2022-07-25T21:26:39.258Z,3.30
2022-07-25T21:29:08.094Z,3.43
2022-07-25T21:31:36.612Z,3.33
2022-07-25T21:34:05.015Z,3.80
2022-07-25T21:36:34.110Z,3.30
2022-07-25T21:39:03.867Z,2.73
2022-07-25T21:41:32.183Z,3.30
2022-07-25T21:44:00.277Z,3.17
2022-07-25T21:46:28.570Z,3.20
2022-07-25T21:49:14.690Z,3.07
2022-07-25T21:51:43.136Z,2.60
2022-07-25T21:54:12.791Z,2.60
2022-07-25T21:56:42.119Z,2.93
2022-07-25T21:59:10.772Z,3.33
2022-07-25T22:01:39.843Z,2.73
2022-07-25T22:04:08.143Z,3.03
2022-07-25T22:06:36.266Z,2.57
2022-07-25T22:09:05.721Z,2.70
2022-07-25T22:11:42.683Z,2.40
2022-07-25T22:14:14.651Z,2.77
2022-07-25T22:16:42.985Z,2.53
2022-07-25T22:19:11.485Z,2.13
2022-07-25T22:21:40.778Z,2.57
2022-07-25T22:24:09.207Z,2.40
2022-07-25T22:26:38.695Z,2.63
2022-07-25T22:29:07.271Z,2.70
2022-07-25T22:31:35.946Z,2.53
2022-07-25T22:34:04.100Z,2.57
2022-07-25T22:36:32.229Z,2.20
2022-07-25T22:39:00.301Z,2.83
2022-07-25T22:41:28.402Z,2.87
2022-07-25T22:43:59.794Z,2.77
2022-07-25T22:46:28.905Z,2.63
2022-07-25T22:48:57.537Z,1.93
2022-07-25T22:51:26.399Z,2.27
2022-07-25T22:53:54.829Z,2.50
2022-07-25T22:56:23.353Z,2.70
2022-07-25T22:58:51.469Z,2.53
2022-07-25T23:01:21.811Z,2.30
2022-07-25T23:03:50.773Z,2.47
2022-07-25T23:06:20.103Z,2.50
2022-07-25T23:08:49.190Z,2.20
2022-07-25T23:11:17.565Z,2.20
2022-07-25T23:13:45.833Z,2.70
2022-07-25T23:16:13.959Z,2.60
2022-07-25T23:18:43.411Z,2.50
2022-07-25T23:21:11.527Z,2.60
2022-07-25T23:23:39.605Z,2.50
2022-07-25T23:26:07.701Z,2.60
2022-07-25T23:28:35.811Z,2.53
2022-07-25T23:31:04.274Z,2.80
2022-07-25T23:33:32.485Z,2.70
2022-07-25T23:36:02.516Z,2.57
2022-07-25T23:38:30.663Z,3.03
2022-07-25T23:40:58.738Z,2.50
2022-07-25T23:43:55.870Z,2.53
2022-07-25T23:46:15.023Z,2.33
2022-07-25T23:48:43.390Z,2.77
2022-07-25T23:51:12.888Z,2.43
2022-07-25T23:53:41.079Z,2.17
2022-07-25T23:56:09.475Z,2.70
2022-07-25T23:58:37.538Z,2.73
